Terminal Aerodrome Forecast
Issued by NWS

Home | Current Version | Previous Version | Text Only | Print | Product List | Glossary On
Versions: 1 2 3 4 5 6 7 8 9 10 11 12 13 14 15 16 17 18 19 20
568
FTUS41 KPHI 140700 AAA
TAFPNE
TAF AMD
KPNE 140700Z 1407/1506 20004KT P6SM VCSH OVC020
      TEMPO 1407/1409 2SM -SN OVC008
     FM140900 20004KT P6SM VCSH OVC020
     FM141200 28005KT P6SM OVC025
     FM141400 29011G18KT P6SM BKN025
     FM142200 31009KT P6SM SCT200=

USA.gov is the U.S. government's official web portal to all federal, state and local government web resources and services.